sensor_id;sensor_type;location;lat;lon;timestamp;temperature;humidity
71173;DHT22;58875;51.996;4.504;2023-03-14T00:01:34;11.64;72.80
71173;DHT22;58875;51.996;4.504;2023-03-14T00:03:59;11.71;72.63
71173;DHT22;58875;51.996;4.504;2023-03-14T00:06:26;11.69;72.80
71173;DHT22;58875;51.996;4.504;2023-03-14T00:08:51;11.61;73.23
71173;DHT22;58875;51.996;4.504;2023-03-14T00:11:20;11.58;73.39
71173;DHT22;58875;51.996;4.504;2023-03-14T00:13:50;11.42;73.63
71173;DHT22;58875;51.996;4.504;2023-03-14T00:16:16;11.44;73.89
71173;DHT22;58875;51.996;4.504;2023-03-14T00:18:41;11.37;74.00
71173;DHT22;58875;51.996;4.504;2023-03-14T00:21:09;11.38;74.38
71173;DHT22;58875;51.996;4.504;2023-03-14T00:23:37;11.38;75.03
71173;DHT22;58875;51.996;4.504;2023-03-14T00:26:06;11.31;75.25
71173;DHT22;58875;51.996;4.504;2023-03-14T00:28:32;11.18;75.97
71173;DHT22;58875;51.996;4.504;2023-03-14T00:30:58;11.13;76.53
71173;DHT22;58875;51.996;4.504;2023-03-14T00:33:24;11.08;76.85
71173;DHT22;58875;51.996;4.504;2023-03-14T00:35:58;11.07;77.13
71173;DHT22;58875;51.996;4.504;2023-03-14T00:38:25;10.97;77.38
71173;DHT22;58875;51.996;4.504;2023-03-14T00:40:52;10.95;77.58
71173;DHT22;58875;51.996;4.504;2023-03-14T00:43:18;10.96;77.73
71173;DHT22;58875;51.996;4.504;2023-03-14T00:45:49;11.01;77.73
71173;DHT22;58875;51.996;4.504;2023-03-14T00:48:15;11.00;77.56
71173;DHT22;58875;51.996;4.504;2023-03-14T00:50:40;11.03;77.68
71173;DHT22;58875;51.996;4.504;2023-03-14T00:53:06;10.99;77.79
71173;DHT22;58875;51.996;4.504;2023-03-14T00:55:31;10.96;77.93
71173;DHT22;58875;51.996;4.504;2023-03-14T00:57:57;10.93;78.25
71173;DHT22;58875;51.996;4.504;2023-03-14T01:00:23;10.87;78.57
71173;DHT22;58875;51.996;4.504;2023-03-14T01:02:50;10.86;78.54
71173;DHT22;58875;51.996;4.504;2023-03-14T01:05:16;10.80;78.91
71173;DHT22;58875;51.996;4.504;2023-03-14T01:07:42;10.81;79.09
71173;DHT22;58875;51.996;4.504;2023-03-14T01:10:08;10.86;78.85
71173;DHT22;58875;51.996;4.504;2023-03-14T01:12:33;10.77;79.09
71173;DHT22;58875;51.996;4.504;2023-03-14T01:15:00;10.75;79.28
71173;DHT22;58875;51.996;4.504;2023-03-14T01:17:25;10.72;79.29
71173;DHT22;58875;51.996;4.504;2023-03-14T01:19:51;10.73;79.19
71173;DHT22;58875;51.996;4.504;2023-03-14T01:22:19;10.75;79.02
71173;DHT22;58875;51.996;4.504;2023-03-14T01:24:47;10.73;79.14
71173;DHT22;58875;51.996;4.504;2023-03-14T01:27:13;10.76;78.89
71173;DHT22;58875;51.996;4.504;2023-03-14T01:29:39;10.77;78.86
71173;DHT22;58875;51.996;4.504;2023-03-14T01:32:05;10.73;78.90
71173;DHT22;58875;51.996;4.504;2023-03-14T01:34:30;10.73;78.78
71173;DHT22;58875;51.996;4.504;2023-03-14T01:36:56;10.76;78.82
71173;DHT22;58875;51.996;4.504;2023-03-14T01:39:21;10.83;78.47
71173;DHT22;58875;51.996;4.504;2023-03-14T01:41:47;10.84;78.36
71173;DHT22;58875;51.996;4.504;2023-03-14T01:44:18;10.90;78.33
71173;DHT22;58875;51.996;4.504;2023-03-14T01:46:44;10.90;78.02
71173;DHT22;58875;51.996;4.504;2023-03-14T01:49:26;11.01;77.85
71173;DHT22;58875;51.996;4.504;2023-03-14T01:52:06;10.99;77.72
71173;DHT22;58875;51.996;4.504;2023-03-14T01:54:34;11.01;77.75
71173;DHT22;58875;51.996;4.504;2023-03-14T01:59:35;11.00;77.50
71173;DHT22;58875;51.996;4.504;2023-03-14T02:02:05;11.01;77.51
71173;DHT22;58875;51.996;4.504;2023-03-14T02:04:35;11.04;77.45
71173;DHT22;58875;51.996;4.504;2023-03-14T02:07:18;11.03;77.38
71173;DHT22;58875;51.996;4.504;2023-03-14T02:09:46;11.04;77.39
71173;DHT22;58875;51.996;4.504;2023-03-14T02:12:15;11.04;77.36
71173;DHT22;58875;51.996;4.504;2023-03-14T02:14:41;11.03;77.21
71173;DHT22;58875;51.996;4.504;2023-03-14T02:17:16;11.01;77.04
71173;DHT22;58875;51.996;4.504;2023-03-14T02:22:34;10.95;77.32
71173;DHT22;58875;51.996;4.504;2023-03-14T02:25:24;10.93;77.41
71173;DHT22;58875;51.996;4.504;2023-03-14T02:27:53;11.01;77.22
71173;DHT22;58875;51.996;4.504;2023-03-14T02:30:21;11.00;77.20
71173;DHT22;58875;51.996;4.504;2023-03-14T02:32:52;10.99;77.34
71173;DHT22;58875;51.996;4.504;2023-03-14T02:35:22;10.95;77.37
71173;DHT22;58875;51.996;4.504;2023-03-14T02:37:55;10.89;77.74
71173;DHT22;58875;51.996;4.504;2023-03-14T02:40:22;10.86;78.37
71173;DHT22;58875;51.996;4.504;2023-03-14T02:42:55;10.80;79.13
71173;DHT22;58875;51.996;4.504;2023-03-14T02:47:52;10.70;79.62
71173;DHT22;58875;51.996;4.504;2023-03-14T02:50:24;10.67;79.17
71173;DHT22;58875;51.996;4.504;2023-03-14T02:52:50;10.67;79.28
71173;DHT22;58875;51.996;4.504;2023-03-14T02:55:21;10.73;79.20
71173;DHT22;58875;51.996;4.504;2023-03-14T02:57:46;10.70;79.33
71173;DHT22;58875;51.996;4.504;2023-03-14T03:00:12;10.66;79.38
71173;DHT22;58875;51.996;4.504;2023-03-14T03:02:38;10.73;79.19
71173;DHT22;58875;51.996;4.504;2023-03-14T03:05:03;10.80;78.71
71173;DHT22;58875;51.996;4.504;2023-03-14T03:07:29;10.77;78.77
71173;DHT22;58875;51.996;4.504;2023-03-14T03:09:55;10.76;78.84
71173;DHT22;58875;51.996;4.504;2023-03-14T03:12:20;10.75;78.77
71173;DHT22;58875;51.996;4.504;2023-03-14T03:14:46;10.83;78.52
71173;DHT22;58875;51.996;4.504;2023-03-14T03:17:11;10.79;78.53
71173;DHT22;58875;51.996;4.504;2023-03-14T03:19:37;10.89;78.29
71173;DHT22;58875;51.996;4.504;2023-03-14T03:22:02;10.83;78.34
71173;DHT22;58875;51.996;4.504;2023-03-14T03:24:28;10.81;78.17
71173;DHT22;58875;51.996;4.504;2023-03-14T03:26:54;10.89;78.17
71173;DHT22;58875;51.996;4.504;2023-03-14T03:29:20;10.96;78.01
71173;DHT22;58875;51.996;4.504;2023-03-14T03:31:45;10.83;78.28
71173;DHT22;58875;51.996;4.504;2023-03-14T03:34:12;10.89;78.06
71173;DHT22;58875;51.996;4.504;2023-03-14T03:36:38;10.89;78.16
71173;DHT22;58875;51.996;4.504;2023-03-14T03:39:03;10.92;78.27
71173;DHT22;58875;51.996;4.504;2023-03-14T03:41:29;10.89;78.12
71173;DHT22;58875;51.996;4.504;2023-03-14T03:43:55;10.89;78.11
71173;DHT22;58875;51.996;4.504;2023-03-14T03:46:21;10.87;78.31
71173;DHT22;58875;51.996;4.504;2023-03-14T03:48:47;10.90;78.14
71173;DHT22;58875;51.996;4.504;2023-03-14T03:51:14;10.87;78.31
71173;DHT22;58875;51.996;4.504;2023-03-14T03:53:41;10.90;78.17
71173;DHT22;58875;51.996;4.504;2023-03-14T03:56:08;10.96;78.15
71173;DHT22;58875;51.996;4.504;2023-03-14T03:58:34;10.95;78.20
71173;DHT22;58875;51.996;4.504;2023-03-14T04:01:00;10.97;78.01
71173;DHT22;58875;51.996;4.504;2023-03-14T04:03:25;11.01;77.93
71173;DHT22;58875;51.996;4.504;2023-03-14T04:06:02;11.01;77.89
71173;DHT22;58875;51.996;4.504;2023-03-14T04:08:28;11.00;77.95
71173;DHT22;58875;51.996;4.504;2023-03-14T04:10:57;10.99;78.12
71173;DHT22;58875;51.996;4.504;2023-03-14T04:13:23;10.84;79.36
71173;DHT22;58875;51.996;4.504;2023-03-14T04:15:49;10.69;80.76
71173;DHT22;58875;51.996;4.504;2023-03-14T04:18:14;10.56;81.84
71173;DHT22;58875;51.996;4.504;2023-03-14T04:20:40;10.45;82.50
71173;DHT22;58875;51.996;4.504;2023-03-14T04:23:05;10.35;83.33
71173;DHT22;58875;51.996;4.504;2023-03-14T04:25:31;10.34;83.45
71173;DHT22;58875;51.996;4.504;2023-03-14T04:27:59;10.34;83.60
71173;DHT22;58875;51.996;4.504;2023-03-14T04:30:24;10.26;84.01
71173;DHT22;58875;51.996;4.504;2023-03-14T04:32:50;10.26;84.16
71173;DHT22;58875;51.996;4.504;2023-03-14T04:35:16;10.26;84.18
71173;DHT22;58875;51.996;4.504;2023-03-14T04:37:41;10.31;84.34
71173;DHT22;58875;51.996;4.504;2023-03-14T04:40:09;10.28;84.18
71173;DHT22;58875;51.996;4.504;2023-03-14T04:42:35;10.26;84.61
71173;DHT22;58875;51.996;4.504;2023-03-14T04:45:01;10.31;84.27
71173;DHT22;58875;51.996;4.504;2023-03-14T04:47:27;10.34;84.58
71173;DHT22;58875;51.996;4.504;2023-03-14T04:49:52;10.34;84.53
71173;DHT22;58875;51.996;4.504;2023-03-14T04:52:18;10.31;84.74
71173;DHT22;58875;51.996;4.504;2023-03-14T04:54:44;10.29;85.01
71173;DHT22;58875;51.996;4.504;2023-03-14T04:57:09;10.26;84.83
71173;DHT22;58875;51.996;4.504;2023-03-14T04:59:37;10.12;85.54
71173;DHT22;58875;51.996;4.504;2023-03-14T05:02:03;10.15;85.75
71173;DHT22;58875;51.996;4.504;2023-03-14T05:04:29;10.19;85.59
71173;DHT22;58875;51.996;4.504;2023-03-14T05:06:58;10.18;85.98
71173;DHT22;58875;51.996;4.504;2023-03-14T05:09:23;10.04;86.01
71173;DHT22;58875;51.996;4.504;2023-03-14T05:11:49;10.04;86.21
71173;DHT22;58875;51.996;4.504;2023-03-14T05:14:14;10.05;86.45
71173;DHT22;58875;51.996;4.504;2023-03-14T05:16:40;10.01;86.59
71173;DHT22;58875;51.996;4.504;2023-03-14T05:19:05;9.95;86.75
71173;DHT22;58875;51.996;4.504;2023-03-14T05:21:31;9.97;87.01
71173;DHT22;58875;51.996;4.504;2023-03-14T05:23:56;10.05;86.97
71173;DHT22;58875;51.996;4.504;2023-03-14T05:26:23;10.02;86.92
71173;DHT22;58875;51.996;4.504;2023-03-14T05:28:48;9.91;87.21
71173;DHT22;58875;51.996;4.504;2023-03-14T05:31:14;9.76;87.24
71173;DHT22;58875;51.996;4.504;2023-03-14T05:33:40;9.20;86.62
71173;DHT22;58875;51.996;4.504;2023-03-14T05:36:06;9.11;87.15
71173;DHT22;58875;51.996;4.504;2023-03-14T05:38:31;8.98;86.78
71173;DHT22;58875;51.996;4.504;2023-03-14T05:40:57;8.88;86.71
71173;DHT22;58875;51.996;4.504;2023-03-14T05:43:23;8.84;86.88
71173;DHT22;58875;51.996;4.504;2023-03-14T05:45:49;8.86;87.12
71173;DHT22;58875;51.996;4.504;2023-03-14T05:48:14;8.78;86.60
71173;DHT22;58875;51.996;4.504;2023-03-14T05:50:40;8.67;86.11
71173;DHT22;58875;51.996;4.504;2023-03-14T05:53:05;8.55;86.14
71173;DHT22;58875;51.996;4.504;2023-03-14T05:55:31;8.57;86.58
71173;DHT22;58875;51.996;4.504;2023-03-14T05:57:57;8.65;86.75
71173;DHT22;58875;51.996;4.504;2023-03-14T06:00:22;8.67;86.43
71173;DHT22;58875;51.996;4.504;2023-03-14T06:02:48;8.58;86.45
71173;DHT22;58875;51.996;4.504;2023-03-14T06:05:14;8.51;86.39
71173;DHT22;58875;51.996;4.504;2023-03-14T06:07:39;8.50;86.70
71173;DHT22;58875;51.996;4.504;2023-03-14T06:10:06;8.58;86.66
71173;DHT22;58875;51.996;4.504;2023-03-14T06:12:32;8.61;86.58
71173;DHT22;58875;51.996;4.504;2023-03-14T06:14:57;8.54;86.62
71173;DHT22;58875;51.996;4.504;2023-03-14T06:17:49;8.55;86.78
71173;DHT22;58875;51.996;4.504;2023-03-14T06:20:15;8.54;86.58
71173;DHT22;58875;51.996;4.504;2023-03-14T06:22:41;8.51;86.73
71173;DHT22;58875;51.996;4.504;2023-03-14T06:25:07;8.43;86.79
71173;DHT22;58875;51.996;4.504;2023-03-14T06:27:33;8.44;86.69
71173;DHT22;58875;51.996;4.504;2023-03-14T06:29:59;8.45;86.79
71173;DHT22;58875;51.996;4.504;2023-03-14T06:32:25;8.40;86.75
71173;DHT22;58875;51.996;4.504;2023-03-14T06:34:50;8.26;86.95
71173;DHT22;58875;51.996;4.504;2023-03-14T06:37:16;8.13;86.82
71173;DHT22;58875;51.996;4.504;2023-03-14T06:39:41;8.07;86.94
71173;DHT22;58875;51.996;4.504;2023-03-14T06:42:09;7.97;86.67
71173;DHT22;58875;51.996;4.504;2023-03-14T06:44:34;7.97;86.87
71173;DHT22;58875;51.996;4.504;2023-03-14T06:47:00;8.03;87.08
71173;DHT22;58875;51.996;4.504;2023-03-14T06:49:26;8.07;86.51
71173;DHT22;58875;51.996;4.504;2023-03-14T06:51:51;8.00;86.57
71173;DHT22;58875;51.996;4.504;2023-03-14T06:54:17;8.10;86.74
71173;DHT22;58875;51.996;4.504;2023-03-14T06:56:42;8.10;86.15
71173;DHT22;58875;51.996;4.504;2023-03-14T06:59:08;8.14;86.11
71173;DHT22;58875;51.996;4.504;2023-03-14T07:01:33;8.12;86.08
71173;DHT22;58875;51.996;4.504;2023-03-14T07:04:00;8.14;85.77
71173;DHT22;58875;51.996;4.504;2023-03-14T07:06:25;8.22;85.89
71173;DHT22;58875;51.996;4.504;2023-03-14T07:08:51;8.26;85.64
71173;DHT22;58875;51.996;4.504;2023-03-14T07:11:17;8.30;85.66
71173;DHT22;58875;51.996;4.504;2023-03-14T07:13:42;8.24;85.38
71173;DHT22;58875;51.996;4.504;2023-03-14T07:16:10;8.27;85.35
71173;DHT22;58875;51.996;4.504;2023-03-14T07:18:36;8.32;85.25
71173;DHT22;58875;51.996;4.504;2023-03-14T07:21:03;8.30;85.37
71173;DHT22;58875;51.996;4.504;2023-03-14T07:23:33;8.32;85.65
71173;DHT22;58875;51.996;4.504;2023-03-14T07:25:59;8.33;85.27
71173;DHT22;58875;51.996;4.504;2023-03-14T07:28:25;8.16;85.33
71173;DHT22;58875;51.996;4.504;2023-03-14T07:30:53;8.12;85.64
71173;DHT22;58875;51.996;4.504;2023-03-14T07:33:18;8.16;86.00
71173;DHT22;58875;51.996;4.504;2023-03-14T07:35:44;8.20;86.17
71173;DHT22;58875;51.996;4.504;2023-03-14T07:38:09;8.33;86.47
71173;DHT22;58875;51.996;4.504;2023-03-14T07:40:35;8.19;85.83
71173;DHT22;58875;51.996;4.504;2023-03-14T07:43:00;8.22;86.52
71173;DHT22;58875;51.996;4.504;2023-03-14T07:45:26;8.20;86.16
71173;DHT22;58875;51.996;4.504;2023-03-14T07:47:51;7.90;85.87
71173;DHT22;58875;51.996;4.504;2023-03-14T07:50:17;7.76;86.15
71173;DHT22;58875;51.996;4.504;2023-03-14T07:52:42;7.59;85.68
71173;DHT22;58875;51.996;4.504;2023-03-14T07:55:08;7.36;85.72
71173;DHT22;58875;51.996;4.504;2023-03-14T07:57:33;7.31;86.04
71173;DHT22;58875;51.996;4.504;2023-03-14T07:59:59;7.31;86.22
71173;DHT22;58875;51.996;4.504;2023-03-14T08:02:25;7.21;85.88
71173;DHT22;58875;51.996;4.504;2023-03-14T08:04:50;7.11;85.99
71173;DHT22;58875;51.996;4.504;2023-03-14T08:07:16;7.05;85.82
71173;DHT22;58875;51.996;4.504;2023-03-14T08:09:41;7.00;85.38
71173;DHT22;58875;51.996;4.504;2023-03-14T08:12:07;6.91;85.51
71173;DHT22;58875;51.996;4.504;2023-03-14T08:14:33;7.07;85.43
71173;DHT22;58875;51.996;4.504;2023-03-14T08:16:59;7.25;85.13
71173;DHT22;58875;51.996;4.504;2023-03-14T08:19:24;7.31;84.74
71173;DHT22;58875;51.996;4.504;2023-03-14T08:21:50;7.24;84.57
71173;DHT22;58875;51.996;4.504;2023-03-14T08:24:16;7.21;84.30
71173;DHT22;58875;51.996;4.504;2023-03-14T08:26:41;7.50;83.71
71173;DHT22;58875;51.996;4.504;2023-03-14T08:29:07;7.36;83.14
71173;DHT22;58875;51.996;4.504;2023-03-14T08:31:34;7.11;83.30
71173;DHT22;58875;51.996;4.504;2023-03-14T08:34:01;7.03;83.88
71173;DHT22;58875;51.996;4.504;2023-03-14T08:36:27;6.96;84.76
71173;DHT22;58875;51.996;4.504;2023-03-14T08:38:53;6.56;83.64
71173;DHT22;58875;51.996;4.504;2023-03-14T08:41:18;6.54;83.95
71173;DHT22;58875;51.996;4.504;2023-03-14T08:43:44;6.59;82.92
71173;DHT22;58875;51.996;4.504;2023-03-14T08:46:09;6.60;81.25
71173;DHT22;58875;51.996;4.504;2023-03-14T08:48:35;6.63;80.38
71173;DHT22;58875;51.996;4.504;2023-03-14T08:51:12;6.69;80.51
71173;DHT22;58875;51.996;4.504;2023-03-14T08:53:38;6.80;79.60
71173;DHT22;58875;51.996;4.504;2023-03-14T08:56:04;7.08;79.75
71173;DHT22;58875;51.996;4.504;2023-03-14T08:58:32;7.27;79.22
71173;DHT22;58875;51.996;4.504;2023-03-14T09:00:57;7.58;79.36
71173;DHT22;58875;51.996;4.504;2023-03-14T09:03:26;7.68;78.76
71173;DHT22;58875;51.996;4.504;2023-03-14T09:05:52;7.73;78.10
71173;DHT22;58875;51.996;4.504;2023-03-14T09:08:17;7.68;77.43
71173;DHT22;58875;51.996;4.504;2023-03-14T09:10:43;7.81;78.00
71173;DHT22;58875;51.996;4.504;2023-03-14T09:13:09;7.79;77.00
71173;DHT22;58875;51.996;4.504;2023-03-14T09:15:35;7.86;76.77
71173;DHT22;58875;51.996;4.504;2023-03-14T09:18:01;7.93;77.33
71173;DHT22;58875;51.996;4.504;2023-03-14T09:20:26;7.90;76.84
71173;DHT22;58875;51.996;4.504;2023-03-14T09:22:52;7.93;76.95
71173;DHT22;58875;51.996;4.504;2023-03-14T09:25:18;7.85;76.18
71173;DHT22;58875;51.996;4.504;2023-03-14T09:27:43;7.72;75.25
71173;DHT22;58875;51.996;4.504;2023-03-14T09:30:10;7.68;74.48
71173;DHT22;58875;51.996;4.504;2023-03-14T09:32:36;7.68;75.60
71173;DHT22;58875;51.996;4.504;2023-03-14T09:35:02;7.58;75.17
71173;DHT22;58875;51.996;4.504;2023-03-14T09:37:28;7.45;76.27
71173;DHT22;58875;51.996;4.504;2023-03-14T09:39:53;7.13;79.00
71173;DHT22;58875;51.996;4.504;2023-03-14T09:42:25;6.96;81.28
71173;DHT22;58875;51.996;4.504;2023-03-14T09:45:03;6.96;82.19
71173;DHT22;58875;51.996;4.504;2023-03-14T09:47:33;6.70;81.69
71173;DHT22;58875;51.996;4.504;2023-03-14T09:50:00;6.68;82.29
71173;DHT22;58875;51.996;4.504;2023-03-14T09:52:31;6.84;81.58
71173;DHT22;58875;51.996;4.504;2023-03-14T09:55:01;6.99;79.81
71173;DHT22;58875;51.996;4.504;2023-03-14T09:57:32;7.08;79.70
71173;DHT22;58875;51.996;4.504;2023-03-14T10:00:04;7.27;79.60
71173;DHT22;58875;51.996;4.504;2023-03-14T10:02:38;7.50;79.58
71173;DHT22;58875;51.996;4.504;2023-03-14T10:05:16;7.63;79.27
71173;DHT22;58875;51.996;4.504;2023-03-14T10:07:42;7.63;78.27
71173;DHT22;58875;51.996;4.504;2023-03-14T10:10:11;7.47;77.86
71173;DHT22;58875;51.996;4.504;2023-03-14T10:12:38;7.18;77.33
71173;DHT22;58875;51.996;4.504;2023-03-14T10:15:15;6.82;78.19
71173;DHT22;58875;51.996;4.504;2023-03-14T10:17:50;6.93;78.65
71173;DHT22;58875;51.996;4.504;2023-03-14T10:20:37;7.08;77.80
71173;DHT22;58875;51.996;4.504;2023-03-14T10:23:23;7.22;77.01
71173;DHT22;58875;51.996;4.504;2023-03-14T10:26:05;7.31;76.67
71173;DHT22;58875;51.996;4.504;2023-03-14T10:28:43;7.44;76.46
71173;DHT22;58875;51.996;4.504;2023-03-14T10:31:09;7.58;76.63
71173;DHT22;58875;51.996;4.504;2023-03-14T10:33:36;7.58;74.72
71173;DHT22;58875;51.996;4.504;2023-03-14T10:36:27;7.66;73.52
71173;DHT22;58875;51.996;4.504;2023-03-14T10:39:21;7.76;71.76
71173;DHT22;58875;51.996;4.504;2023-03-14T10:41:55;7.79;69.02
71173;DHT22;58875;51.996;4.504;2023-03-14T10:44:24;7.68;68.12
71173;DHT22;58875;51.996;4.504;2023-03-14T10:47:02;7.72;68.44
71173;DHT22;58875;51.996;4.504;2023-03-14T10:52:19;7.92;66.80
71173;DHT22;58875;51.996;4.504;2023-03-14T10:54:53;7.90;66.90
71173;DHT22;58875;51.996;4.504;2023-03-14T10:57:20;7.86;67.50
71173;DHT22;58875;51.996;4.504;2023-03-14T10:59:46;7.89;66.86
71173;DHT22;58875;51.996;4.504;2023-03-14T11:07:46;8.41;65.14
71173;DHT22;58875;51.996;4.504;2023-03-14T11:20:45;8.78;63.26
71173;DHT22;58875;51.996;4.504;2023-03-14T11:23:23;8.71;62.44
71173;DHT22;58875;51.996;4.504;2023-03-14T11:25:59;8.75;61.52
71173;DHT22;58875;51.996;4.504;2023-03-14T11:28:36;8.85;59.50
71173;DHT22;58875;51.996;4.504;2023-03-14T11:31:27;8.74;58.69
71173;DHT22;58875;51.996;4.504;2023-03-14T11:35:13;8.92;58.95
71173;DHT22;58875;51.996;4.504;2023-03-14T11:37:27;8.95;58.03
71173;DHT22;58875;51.996;4.504;2023-03-14T11:42:36;9.30;59.45
71173;DHT22;58875;51.996;4.504;2023-03-14T11:45:19;9.42;55.42
71173;DHT22;58875;51.996;4.504;2023-03-14T11:50:38;9.43;57.53
71173;DHT22;58875;51.996;4.504;2023-03-14T11:53:29;9.22;54.88
71173;DHT22;58875;51.996;4.504;2023-03-14T11:55:56;9.26;55.07
71173;DHT22;58875;51.996;4.504;2023-03-14T11:58:50;9.16;52.22
71173;DHT22;58875;51.996;4.504;2023-03-14T12:01:20;9.08;51.70
71173;DHT22;58875;51.996;4.504;2023-03-14T12:04:09;9.04;53.79
71173;DHT22;58875;51.996;4.504;2023-03-14T12:06:49;9.12;54.73
71173;DHT22;58875;51.996;4.504;2023-03-14T12:09:18;9.06;53.19
71173;DHT22;58875;51.996;4.504;2023-03-14T12:11:52;9.09;53.50
71173;DHT22;58875;51.996;4.504;2023-03-14T12:17:05;9.02;52.39
71173;DHT22;58875;51.996;4.504;2023-03-14T12:19:37;8.91;52.27
71173;DHT22;58875;51.996;4.504;2023-03-14T12:22:23;8.93;51.74
71173;DHT22;58875;51.996;4.504;2023-03-14T12:25:15;9.02;49.96
71173;DHT22;58875;51.996;4.504;2023-03-14T12:30:34;9.15;53.61
71173;DHT22;58875;51.996;4.504;2023-03-14T12:35:48;9.40;53.48
71173;DHT22;58875;51.996;4.504;2023-03-14T12:41:24;8.92;51.14
71173;DHT22;58875;51.996;4.504;2023-03-14T12:43:50;8.92;52.45
71173;DHT22;58875;51.996;4.504;2023-03-14T12:46:23;8.85;53.64
71173;DHT22;58875;51.996;4.504;2023-03-14T12:49:03;8.91;55.27
71173;DHT22;58875;51.996;4.504;2023-03-14T12:51:38;9.04;54.26
71173;DHT22;58875;51.996;4.504;2023-03-14T12:56:45;9.02;53.69
71173;DHT22;58875;51.996;4.504;2023-03-14T12:59:29;8.98;45.01
71173;DHT22;58875;51.996;4.504;2023-03-14T13:04:37;9.18;48.52
71173;DHT22;58875;51.996;4.504;2023-03-14T13:15:34;8.86;47.38
71173;DHT22;58875;51.996;4.504;2023-03-14T13:20:44;8.65;49.07
71173;DHT22;58875;51.996;4.504;2023-03-14T13:23:34;8.67;49.56
71173;DHT22;58875;51.996;4.504;2023-03-14T13:26:01;8.55;48.98
71173;DHT22;58875;51.996;4.504;2023-03-14T13:28:29;8.48;49.26
71173;DHT22;58875;51.996;4.504;2023-03-14T13:30:58;8.38;50.47
71173;DHT22;58875;51.996;4.504;2023-03-14T13:33:25;8.38;49.55
71173;DHT22;58875;51.996;4.504;2023-03-14T13:35:57;8.29;50.85
71173;DHT22;58875;51.996;4.504;2023-03-14T13:38:29;8.34;51.21
71173;DHT22;58875;51.996;4.504;2023-03-14T13:41:00;8.57;50.02
71173;DHT22;58875;51.996;4.504;2023-03-14T13:43:36;8.50;48.51
71173;DHT22;58875;51.996;4.504;2023-03-14T13:46:12;8.30;47.91
71173;DHT22;58875;51.996;4.504;2023-03-14T13:48:55;8.34;48.85
71173;DHT22;58875;51.996;4.504;2023-03-14T13:51:23;8.38;50.60
71173;DHT22;58875;51.996;4.504;2023-03-14T13:53:55;8.37;51.44
71173;DHT22;58875;51.996;4.504;2023-03-14T13:56:27;8.32;49.36
71173;DHT22;58875;51.996;4.504;2023-03-14T13:58:54;8.27;49.07
71173;DHT22;58875;51.996;4.504;2023-03-14T14:01:25;8.14;48.84
71173;DHT22;58875;51.996;4.504;2023-03-14T14:03:55;8.12;49.80
71173;DHT22;58875;51.996;4.504;2023-03-14T14:06:31;8.16;50.37
71173;DHT22;58875;51.996;4.504;2023-03-14T14:09:08;8.23;49.92
71173;DHT22;58875;51.996;4.504;2023-03-14T14:14:32;8.06;46.84
71173;DHT22;58875;51.996;4.504;2023-03-14T14:17:02;8.07;47.88
71173;DHT22;58875;51.996;4.504;2023-03-14T14:19:32;7.86;49.32
71173;DHT22;58875;51.996;4.504;2023-03-14T14:21:59;7.78;50.13
71173;DHT22;58875;51.996;4.504;2023-03-14T14:24:30;7.85;51.22
71173;DHT22;58875;51.996;4.504;2023-03-14T14:29:39;7.90;50.52
71173;DHT22;58875;51.996;4.504;2023-03-14T14:35:06;8.00;51.94
71173;DHT22;58875;51.996;4.504;2023-03-14T14:37:42;8.12;52.08
71173;DHT22;58875;51.996;4.504;2023-03-14T14:40:30;8.12;51.39
71173;DHT22;58875;51.996;4.504;2023-03-14T14:43:03;8.16;49.78
71173;DHT22;58875;51.996;4.504;2023-03-14T14:45:29;8.20;50.19
71173;DHT22;58875;51.996;4.504;2023-03-14T14:50:38;8.12;49.91
71173;DHT22;58875;51.996;4.504;2023-03-14T14:53:28;8.02;49.05
71173;DHT22;58875;51.996;4.504;2023-03-14T14:55:59;7.96;49.42
71173;DHT22;58875;51.996;4.504;2023-03-14T14:58:34;8.03;50.11
71173;DHT22;58875;51.996;4.504;2023-03-14T15:01:20;8.10;49.88
71173;DHT22;58875;51.996;4.504;2023-03-14T15:03:51;8.02;47.67
71173;DHT22;58875;51.996;4.504;2023-03-14T15:06:18;7.94;48.04
71173;DHT22;58875;51.996;4.504;2023-03-14T15:08:46;8.10;47.32
71173;DHT22;58875;51.996;4.504;2023-03-14T15:11:18;8.17;47.60
71173;DHT22;58875;51.996;4.504;2023-03-14T15:13:44;8.36;48.19
71173;DHT22;58875;51.996;4.504;2023-03-14T15:16:17;8.22;48.65
71173;DHT22;58875;51.996;4.504;2023-03-14T15:18:43;8.20;48.79
71173;DHT22;58875;51.996;4.504;2023-03-14T15:21:10;8.20;49.49
71173;DHT22;58875;51.996;4.504;2023-03-14T15:23:36;8.17;49.64
71173;DHT22;58875;51.996;4.504;2023-03-14T15:26:02;8.13;48.43
71173;DHT22;58875;51.996;4.504;2023-03-14T15:28:29;7.97;48.53
71173;DHT22;58875;51.996;4.504;2023-03-14T15:30:58;7.97;48.20
71173;DHT22;58875;51.996;4.504;2023-03-14T15:33:27;8.12;48.52
71173;DHT22;58875;51.996;4.504;2023-03-14T15:35:55;7.97;48.00
71173;DHT22;58875;51.996;4.504;2023-03-14T15:38:24;7.99;48.79
71173;DHT22;58875;51.996;4.504;2023-03-14T15:40:51;7.97;48.14
71173;DHT22;58875;51.996;4.504;2023-03-14T15:43:18;7.99;47.69
71173;DHT22;58875;51.996;4.504;2023-03-14T15:45:44;8.02;47.77
71173;DHT22;58875;51.996;4.504;2023-03-14T15:48:18;8.16;47.99
71173;DHT22;58875;51.996;4.504;2023-03-14T15:50:44;8.10;48.82
71173;DHT22;58875;51.996;4.504;2023-03-14T15:53:10;8.14;48.57
71173;DHT22;58875;51.996;4.504;2023-03-14T15:55:36;8.09;49.15
71173;DHT22;58875;51.996;4.504;2023-03-14T15:58:01;7.94;49.97
71173;DHT22;58875;51.996;4.504;2023-03-14T16:00:28;7.87;50.56
71173;DHT22;58875;51.996;4.504;2023-03-14T16:02:54;7.93;51.08
71173;DHT22;58875;51.996;4.504;2023-03-14T16:05:21;8.00;50.48
71173;DHT22;58875;51.996;4.504;2023-03-14T16:07:47;7.94;49.55
71173;DHT22;58875;51.996;4.504;2023-03-14T16:10:14;7.87;49.60
71173;DHT22;58875;51.996;4.504;2023-03-14T16:12:41;7.82;49.49
71173;DHT22;58875;51.996;4.504;2023-03-14T16:15:10;7.85;50.69
71173;DHT22;58875;51.996;4.504;2023-03-14T16:17:43;7.81;49.52
71173;DHT22;58875;51.996;4.504;2023-03-14T16:20:10;7.87;50.64
71173;DHT22;58875;51.996;4.504;2023-03-14T16:22:36;7.94;49.52
71173;DHT22;58875;51.996;4.504;2023-03-14T16:25:06;7.79;50.00
71173;DHT22;58875;51.996;4.504;2023-03-14T16:27:32;7.83;51.52
71173;DHT22;58875;51.996;4.504;2023-03-14T16:29:59;7.83;51.96
71173;DHT22;58875;51.996;4.504;2023-03-14T16:32:25;7.96;51.26
71173;DHT22;58875;51.996;4.504;2023-03-14T16:34:51;7.87;52.09
71173;DHT22;58875;51.996;4.504;2023-03-14T16:37:16;7.75;51.16
71173;DHT22;58875;51.996;4.504;2023-03-14T16:39:42;7.65;51.22
71173;DHT22;58875;51.996;4.504;2023-03-14T16:42:08;7.61;52.11
71173;DHT22;58875;51.996;4.504;2023-03-14T16:44:33;7.69;52.93
71173;DHT22;58875;51.996;4.504;2023-03-14T16:46:59;7.76;52.52
71173;DHT22;58875;51.996;4.504;2023-03-14T16:49:25;7.75;52.24
71173;DHT22;58875;51.996;4.504;2023-03-14T16:51:50;7.65;52.00
71173;DHT22;58875;51.996;4.504;2023-03-14T16:54:16;7.63;52.41
71173;DHT22;58875;51.996;4.504;2023-03-14T16:56:41;7.66;53.58
71173;DHT22;58875;51.996;4.504;2023-03-14T16:59:16;7.71;53.42
71173;DHT22;58875;51.996;4.504;2023-03-14T17:01:41;7.56;51.56